createdAt,value
2018-02-21T00:00:04.655Z,997.65
2018-02-21T00:01:04.644Z,997.59
2018-02-21T00:02:04.615Z,997.62
2018-02-21T00:03:04.592Z,997.63
2018-02-21T00:04:04.576Z,997.69
2018-02-21T00:05:04.554Z,997.63
2018-02-21T00:06:04.528Z,997.68
2018-02-21T00:07:04.512Z,997.62
2018-02-21T00:08:04.484Z,997.65
2018-02-21T00:09:04.464Z,997.69
2018-02-21T00:10:04.447Z,997.71
2018-02-21T00:11:04.427Z,997.75
2018-02-21T00:12:04.408Z,997.75
2018-02-21T00:13:04.376Z,997.77
2018-02-21T00:14:04.356Z,997.79
2018-02-21T00:15:04.334Z,997.78
2018-02-21T00:16:04.318Z,997.82
2018-02-21T00:17:04.295Z,997.82
2018-02-21T00:18:04.273Z,997.81
2018-02-21T00:19:04.256Z,997.84
2018-02-21T00:20:04.236Z,997.86
2018-02-21T00:21:04.204Z,997.86
2018-02-21T00:22:04.186Z,997.88
2018-02-21T00:23:04.166Z,997.88
2018-02-21T00:24:04.143Z,997.88
2018-02-21T00:25:04.122Z,997.89
2018-02-21T00:26:04.099Z,997.91
2018-02-21T00:27:04.080Z,997.96
2018-02-21T00:28:04.051Z,997.96
2018-02-21T00:29:04.033Z,997.98
2018-02-21T00:30:04.014Z,997.98
2018-02-21T00:31:03.991Z,997.97
2018-02-21T00:32:03.968Z,997.95
2018-02-21T00:33:03.950Z,997.98
2018-02-21T00:34:03.931Z,998.00
2018-02-21T00:35:03.908Z,998.02
2018-02-21T00:36:03.886Z,998.00
2018-02-21T00:37:03.866Z,998.02
2018-02-21T00:38:03.849Z,998.05
2018-02-21T00:39:03.829Z,998.03
2018-02-21T00:40:03.925Z,998.04
2018-02-21T00:41:03.786Z,998.01
2018-02-21T00:42:03.757Z,998.05
2018-02-21T00:43:03.748Z,998.07
2018-02-21T00:44:03.713Z,998.07
2018-02-21T00:45:03.693Z,998.10
2018-02-21T00:46:03.673Z,998.11
2018-02-21T00:47:03.662Z,998.09
2018-02-21T00:48:03.630Z,998.08
2018-02-21T00:49:03.612Z,998.13
2018-02-21T00:50:03.596Z,998.13
2018-02-21T00:51:03.563Z,998.15
2018-02-21T00:52:03.540Z,998.15
2018-02-21T00:53:03.522Z,998.14
2018-02-21T00:54:03.503Z,998.15
2018-02-21T00:55:03.477Z,998.18
2018-02-21T00:56:03.461Z,998.15
2018-02-21T00:57:03.432Z,998.20
2018-02-21T00:58:03.409Z,998.22
2018-02-21T00:59:03.391Z,998.22
2018-02-21T01:00:03.371Z,998.20
2018-02-21T01:01:03.345Z,998.24
2018-02-21T01:02:03.330Z,998.22
2018-02-21T01:03:03.307Z,998.29
2018-02-21T01:04:03.282Z,998.25
2018-02-21T01:05:03.265Z,998.26
2018-02-21T01:06:03.239Z,998.29
2018-02-21T01:07:03.224Z,998.25
2018-02-21T01:08:03.195Z,998.26
2018-02-21T01:09:03.183Z,998.25
2018-02-21T01:10:03.156Z,998.25
2018-02-21T01:11:03.134Z,998.22
2018-02-21T01:12:03.115Z,998.21
2018-02-21T01:13:03.086Z,998.21
2018-02-21T01:14:03.067Z,998.26
2018-02-21T01:15:03.053Z,998.21
2018-02-21T01:16:03.025Z,998.19
2018-02-21T01:17:03.005Z,998.24
2018-02-21T01:18:02.977Z,998.21
2018-02-21T01:19:02.965Z,998.21
2018-02-21T01:20:02.929Z,998.22
2018-02-21T01:21:02.919Z,998.24
2018-02-21T01:22:02.890Z,998.25
2018-02-21T01:23:02.874Z,998.27
2018-02-21T01:24:02.851Z,998.26
2018-02-21T01:25:02.824Z,998.30
2018-02-21T01:26:02.802Z,998.29
2018-02-21T01:27:02.785Z,998.26
2018-02-21T01:28:02.761Z,998.29
2018-02-21T01:29:02.741Z,998.22
2018-02-21T01:30:02.719Z,998.22
2018-02-21T01:31:02.703Z,998.23
2018-02-21T01:32:02.676Z,998.19
2018-02-21T01:33:02.665Z,998.15
2018-02-21T01:34:02.630Z,998.17
2018-02-21T01:35:02.608Z,998.17
2018-02-21T01:36:02.581Z,998.18
2018-02-21T01:37:02.569Z,998.20
2018-02-21T01:38:02.543Z,998.17
2018-02-21T01:39:02.524Z,998.18
2018-02-21T01:40:02.501Z,998.14
2018-02-21T01:41:02.476Z,998.13
2018-02-21T01:42:02.456Z,998.12
2018-02-21T01:43:02.435Z,998.10
2018-02-21T01:44:02.418Z,998.13
2018-02-21T01:45:02.390Z,998.12
2018-02-21T01:46:02.377Z,998.11
2018-02-21T01:47:02.355Z,998.12
2018-02-21T01:48:02.338Z,998.15
2018-02-21T01:49:02.303Z,998.18
2018-02-21T01:50:02.284Z,998.21
2018-02-21T01:51:02.266Z,998.24
2018-02-21T01:52:02.238Z,998.27
2018-02-21T01:53:02.218Z,998.26
2018-02-21T01:54:02.195Z,998.28
2018-02-21T01:55:02.173Z,998.31
2018-02-21T01:56:02.151Z,998.33
2018-02-21T01:57:02.132Z,998.35
2018-02-21T01:58:02.110Z,998.41
2018-02-21T01:59:02.087Z,998.38
2018-02-21T02:00:02.065Z,998.41
2018-02-21T02:01:02.041Z,998.39
2018-02-21T02:02:02.021Z,998.44
2018-02-21T02:03:02.004Z,998.44
2018-02-21T02:04:01.975Z,998.49
2018-02-21T02:05:01.953Z,998.49
2018-02-21T02:06:01.941Z,998.51
2018-02-21T02:07:01.911Z,998.53
2018-02-21T02:08:01.890Z,998.58
2018-02-21T02:09:01.873Z,998.61
2018-02-21T02:10:01.851Z,998.63
2018-02-21T02:11:01.823Z,998.62
2018-02-21T02:12:01.801Z,998.67
2018-02-21T02:13:01.782Z,998.71
2018-02-21T02:14:01.760Z,998.68
2018-02-21T02:15:01.745Z,998.67
2018-02-21T02:16:01.723Z,998.72
2018-02-21T02:17:01.693Z,998.68
2018-02-21T02:18:01.671Z,998.68
2018-02-21T02:19:01.647Z,998.71
2018-02-21T02:20:01.632Z,998.72
2018-02-21T02:21:01.614Z,998.73
2018-02-21T02:22:01.588Z,998.74
2018-02-21T02:23:01.562Z,998.76
2018-02-21T02:24:01.541Z,998.74
2018-02-21T02:25:01.530Z,998.74
2018-02-21T02:26:01.505Z,998.74
2018-02-21T02:27:01.476Z,998.74
2018-02-21T02:28:01.453Z,998.72
2018-02-21T02:29:01.442Z,998.72
2018-02-21T02:30:01.428Z,998.76
2018-02-21T02:31:01.409Z,998.73
2018-02-21T02:32:01.369Z,998.71
2018-02-21T02:33:01.356Z,998.78
2018-02-21T02:34:01.325Z,998.75
2018-02-21T02:35:01.310Z,998.76
2018-02-21T02:36:01.280Z,998.78
2018-02-21T02:37:01.267Z,998.76
2018-02-21T02:38:01.271Z,998.75
2018-02-21T02:39:01.219Z,998.70
2018-02-21T02:40:01.198Z,998.75
2018-02-21T02:41:01.176Z,998.72
2018-02-21T02:42:01.151Z,998.69
2018-02-21T02:43:01.136Z,998.69
2018-02-21T02:44:01.102Z,998.65
2018-02-21T02:45:01.090Z,998.64
2018-02-21T02:46:01.061Z,998.64
2018-02-21T02:47:01.042Z,998.64
2018-02-21T02:48:01.024Z,998.62
2018-02-21T02:49:01.000Z,998.58
2018-02-21T02:50:00.988Z,998.61
2018-02-21T02:51:00.953Z,998.59
2018-02-21T02:52:00.936Z,998.59
2018-02-21T02:53:00.908Z,998.59
2018-02-21T02:54:00.894Z,998.58
2018-02-21T02:55:00.866Z,998.62
2018-02-21T02:56:00.844Z,998.61
2018-02-21T02:57:00.827Z,998.61
2018-02-21T02:58:00.799Z,998.61
2018-02-21T02:59:00.786Z,998.57
2018-02-21T03:00:00.763Z,998.59
2018-02-21T03:01:00.737Z,998.59
2018-02-21T03:02:00.718Z,998.64
2018-02-21T03:03:00.689Z,998.63
2018-02-21T03:04:00.667Z,998.64
2018-02-21T03:05:00.648Z,998.64
2018-02-21T03:06:00.625Z,998.66
2018-02-21T03:07:00.608Z,998.69
2018-02-21T03:08:00.588Z,998.66
2018-02-21T03:09:00.558Z,998.68
2018-02-21T03:10:00.535Z,998.70
2018-02-21T03:11:00.512Z,998.69
2018-02-21T03:12:00.493Z,998.71
2018-02-21T03:13:00.477Z,998.74
2018-02-21T03:14:00.455Z,998.72
2018-02-21T03:15:00.431Z,998.74
2018-02-21T03:16:00.402Z,998.71
2018-02-21T03:17:00.380Z,998.72
2018-02-21T03:18:00.357Z,998.70
2018-02-21T03:19:00.341Z,998.71
2018-02-21T03:20:00.315Z,998.74
2018-02-21T03:21:00.300Z,998.73
2018-02-21T03:22:00.271Z,998.68
2018-02-21T03:23:00.252Z,998.71
2018-02-21T03:24:00.234Z,998.72
2018-02-21T03:25:00.214Z,998.75
2018-02-21T03:26:00.185Z,998.74
2018-02-21T03:27:00.173Z,998.79
2018-02-21T03:28:00.144Z,998.79
2018-02-21T03:29:00.126Z,998.77
2018-02-21T03:30:00.097Z,998.80
2018-02-21T03:31:00.074Z,998.78
2018-02-21T03:32:00.052Z,998.79
2018-02-21T03:33:00.032Z,998.78
2018-02-21T03:34:00.013Z,998.81
2018-02-21T03:34:59.984Z,998.78
2018-02-21T03:35:59.967Z,998.75
2018-02-21T03:36:59.948Z,998.77
2018-02-21T03:37:59.917Z,998.76
2018-02-21T03:38:59.904Z,998.74
2018-02-21T03:39:59.878Z,998.72
2018-02-21T03:40:59.855Z,998.71
2018-02-21T03:41:59.831Z,998.71
2018-02-21T03:42:59.808Z,998.68
2018-02-21T03:43:59.786Z,998.70
2018-02-21T03:44:59.763Z,998.70
2018-02-21T03:45:59.741Z,998.70
2018-02-21T03:46:59.722Z,998.69
2018-02-21T03:47:59.696Z,998.69
2018-02-21T03:48:59.712Z,998.71
2018-02-21T03:49:59.655Z,998.68
2018-02-21T03:50:59.630Z,998.70
2018-02-21T03:51:59.608Z,998.67
2018-02-21T03:52:59.589Z,998.69
2018-02-21T03:53:59.573Z,998.69
2018-02-21T03:54:59.544Z,998.72
2018-02-21T03:55:59.528Z,998.71
2018-02-21T03:56:59.499Z,998.70
2018-02-21T03:57:59.477Z,998.74
2018-02-21T03:58:59.461Z,998.70
2018-02-21T03:59:59.433Z,998.72
2018-02-21T04:00:59.415Z,998.74
2018-02-21T04:01:59.395Z,998.70
2018-02-21T04:02:59.366Z,998.74
2018-02-21T04:03:59.344Z,998.74
2018-02-21T04:04:59.321Z,998.76
2018-02-21T04:05:59.302Z,998.75
2018-02-21T04:06:59.277Z,998.71
2018-02-21T04:07:59.261Z,998.73
2018-02-21T04:08:59.234Z,998.72
2018-02-21T04:09:59.211Z,998.73
2018-02-21T04:10:59.192Z,998.73
2018-02-21T04:11:59.166Z,998.74
2018-02-21T04:12:59.143Z,998.77
2018-02-21T04:13:59.124Z,998.77
2018-02-21T04:14:59.109Z,998.74
2018-02-21T04:15:59.079Z,998.79
2018-02-21T04:16:59.060Z,998.83
2018-02-21T04:17:59.037Z,998.85
2018-02-21T04:18:59.018Z,998.88
2018-02-21T04:19:58.996Z,998.89
2018-02-21T04:20:58.966Z,998.92
2018-02-21T04:21:58.951Z,998.93
2018-02-21T04:22:58.922Z,998.95
2018-02-21T04:23:58.906Z,998.96
2018-02-21T04:24:58.883Z,998.98
2018-02-21T04:25:58.855Z,998.99
2018-02-21T04:26:58.834Z,998.99
2018-02-21T04:27:58.812Z,998.98
2018-02-21T04:28:58.793Z,998.97
2018-02-21T04:29:58.767Z,998.97
2018-02-21T04:30:58.744Z,998.95
2018-02-21T04:31:58.730Z,998.98
2018-02-21T04:32:58.725Z,998.98
2018-02-21T04:33:58.678Z,999.00
2018-02-21T04:34:58.655Z,998.96
2018-02-21T04:35:58.632Z,998.96
2018-02-21T04:36:58.610Z,999.02
2018-02-21T04:37:58.594Z,999.01
2018-02-21T04:38:58.572Z,998.98
2018-02-21T04:39:58.546Z,999.00
2018-02-21T04:40:58.521Z,999.02
2018-02-21T04:41:58.508Z,998.98
2018-02-21T04:42:58.482Z,998.96
2018-02-21T04:43:58.466Z,998.99
2018-02-21T04:44:58.437Z,999.00
2018-02-21T04:45:58.450Z,998.96
2018-02-21T04:46:58.389Z,998.97
2018-02-21T04:47:58.370Z,998.95
2018-02-21T04:48:58.344Z,998.93
2018-02-21T04:49:58.322Z,998.96
2018-02-21T04:50:58.303Z,998.90
2018-02-21T04:51:58.277Z,998.87
2018-02-21T04:52:58.264Z,998.88
2018-02-21T04:53:58.231Z,998.89
2018-02-21T04:54:58.213Z,998.86
2018-02-21T04:55:58.193Z,998.90
2018-02-21T04:56:58.168Z,998.88
2018-02-21T04:57:58.146Z,998.84
2018-02-21T04:58:58.125Z,998.81
2018-02-21T04:59:58.100Z,998.78
2018-02-21T05:00:58.081Z,998.80
2018-02-21T05:01:58.053Z,998.80
2018-02-21T05:02:58.034Z,998.77
2018-02-21T05:03:58.015Z,998.77
2018-02-21T05:04:57.987Z,998.78
2018-02-21T05:05:57.968Z,998.83
2018-02-21T05:06:57.945Z,998.78
2018-02-21T05:07:57.929Z,998.79
2018-02-21T05:08:57.901Z,998.77
2018-02-21T05:09:57.884Z,998.74
2018-02-21T05:10:57.862Z,998.74
2018-02-21T05:11:57.840Z,998.71
2018-02-21T05:12:57.817Z,998.70
2018-02-21T05:13:57.789Z,998.70
2018-02-21T05:14:57.763Z,998.68
2018-02-21T05:15:57.744Z,998.68
2018-02-21T05:16:57.721Z,998.64
2018-02-21T05:17:57.708Z,998.60
2018-02-21T05:18:57.696Z,998.57
2018-02-21T05:19:57.658Z,998.55
2018-02-21T05:20:57.648Z,998.52
2018-02-21T05:21:57.613Z,998.52
2018-02-21T05:22:57.594Z,998.58
2018-02-21T05:23:57.568Z,998.62
2018-02-21T05:24:57.546Z,998.62
2018-02-21T05:25:57.520Z,998.65
2018-02-21T05:26:57.504Z,998.67
2018-02-21T05:27:57.488Z,998.68
2018-02-21T05:28:57.456Z,998.66
2018-02-21T05:29:57.432Z,998.68
2018-02-21T05:30:57.416Z,998.67
2018-02-21T05:31:57.397Z,998.70
2018-02-21T05:32:57.364Z,998.64
2018-02-21T05:33:57.348Z,998.64
2018-02-21T05:34:57.334Z,998.66
2018-02-21T05:35:57.294Z,998.65
2018-02-21T05:36:57.272Z,998.61
2018-02-21T05:37:57.256Z,998.56
2018-02-21T05:38:57.237Z,998.51
2018-02-21T05:39:57.211Z,998.53
2018-02-21T05:40:57.182Z,998.49
2018-02-21T05:41:57.160Z,998.49
2018-02-21T05:42:57.138Z,998.52
2018-02-21T05:43:57.116Z,998.51
2018-02-21T05:44:57.096Z,998.50
2018-02-21T05:45:57.084Z,998.53
2018-02-21T05:46:57.067Z,998.53
2018-02-21T05:47:57.031Z,998.57
2018-02-21T05:48:57.008Z,998.56
2018-02-21T05:49:57.037Z,998.54
2018-02-21T05:50:56.961Z,998.64
2018-02-21T05:51:56.958Z,998.58
2018-02-21T05:52:56.932Z,998.62
2018-02-21T05:53:56.896Z,998.62
2018-02-21T05:54:56.875Z,998.60
2018-02-21T05:55:56.846Z,998.59
2018-02-21T05:56:56.831Z,998.56
2018-02-21T05:57:56.808Z,998.60
2018-02-21T05:58:56.837Z,998.56
2018-02-21T05:59:56.821Z,998.57
2018-02-21T06:00:56.779Z,998.57
2018-02-21T06:01:56.737Z,998.56
2018-02-21T06:02:57.371Z,998.57
2018-02-21T06:03:56.674Z,998.55
2018-02-21T06:04:56.645Z,998.60
2018-02-21T06:05:56.638Z,998.58
2018-02-21T06:06:56.606Z,998.58
2018-02-21T06:07:56.587Z,998.56
2018-02-21T06:08:56.558Z,998.57
2018-02-21T06:09:56.532Z,998.58
2018-02-21T06:10:56.512Z,998.63
2018-02-21T06:11:56.491Z,998.60
2018-02-21T06:12:56.471Z,998.59
2018-02-21T06:13:56.439Z,998.59
2018-02-21T06:14:56.425Z,998.60
2018-02-21T06:15:56.393Z,998.59
2018-02-21T06:16:56.378Z,998.59
2018-02-21T06:17:56.352Z,998.59
2018-02-21T06:18:56.331Z,998.58
2018-02-21T06:19:56.310Z,998.56
2018-02-21T06:20:56.284Z,998.56
2018-02-21T06:21:56.261Z,998.58
2018-02-21T06:22:56.237Z,998.57
2018-02-21T06:23:56.211Z,998.55
2018-02-21T06:24:56.208Z,998.61
2018-02-21T06:25:56.176Z,998.60
2018-02-21T06:26:56.156Z,998.56
2018-02-21T06:27:56.125Z,998.54
2018-02-21T06:28:56.105Z,998.57
2018-02-21T06:29:56.079Z,998.57
2018-02-21T06:30:56.060Z,998.59
2018-02-21T06:31:56.045Z,998.61
2018-02-21T06:32:56.015Z,998.62
2018-02-21T06:33:55.987Z,998.60
2018-02-21T06:34:55.970Z,998.62
2018-02-21T06:35:55.948Z,998.68
2018-02-21T06:36:55.927Z,998.71
2018-02-21T06:37:55.900Z,998.75
2018-02-21T06:38:55.875Z,998.77
2018-02-21T06:39:55.852Z,998.75
2018-02-21T06:40:55.835Z,998.77
2018-02-21T06:41:55.807Z,998.78
2018-02-21T06:42:55.791Z,998.78
2018-02-21T06:43:55.764Z,998.76
2018-02-21T06:44:55.736Z,998.80
2018-02-21T06:45:55.714Z,998.78
2018-02-21T06:46:55.691Z,998.81
2018-02-21T06:47:55.678Z,998.82
2018-02-21T06:48:55.653Z,998.79
2018-02-21T06:49:55.632Z,998.79
2018-02-21T06:50:55.603Z,998.81
2018-02-21T06:51:55.584Z,998.76
2018-02-21T06:52:55.584Z,998.80
2018-02-21T06:53:55.534Z,998.78
2018-02-21T06:54:55.523Z,998.75
2018-02-21T06:55:55.488Z,998.75
2018-02-21T06:56:55.469Z,998.72
2018-02-21T06:57:55.445Z,998.74
2018-02-21T06:58:55.421Z,998.68
2018-02-21T06:59:55.402Z,998.68
2018-02-21T07:00:55.383Z,998.69
2018-02-21T07:01:55.357Z,998.70
2018-02-21T07:02:55.335Z,998.67
2018-02-21T07:03:55.306Z,998.70
2018-02-21T07:04:55.290Z,998.67
2018-02-21T07:05:55.268Z,998.65
2018-02-21T07:06:55.245Z,998.67
2018-02-21T07:07:55.235Z,998.66
2018-02-21T07:08:55.197Z,998.68
2018-02-21T07:09:55.179Z,998.69
2018-02-21T07:10:55.156Z,998.66
2018-02-21T07:11:55.127Z,998.71
2018-02-21T07:12:55.108Z,998.73
2018-02-21T07:13:55.086Z,998.73
2018-02-21T07:14:55.063Z,998.71
2018-02-21T07:15:55.036Z,998.67
2018-02-21T07:16:55.019Z,998.68
2018-02-21T07:17:54.990Z,998.65
2018-02-21T07:18:54.974Z,998.68
2018-02-21T07:19:54.945Z,998.68
2018-02-21T07:20:54.923Z,998.68
2018-02-21T07:21:54.910Z,998.68
2018-02-21T07:22:54.875Z,998.65
2018-02-21T07:23:54.866Z,998.71
2018-02-21T07:24:54.831Z,998.73
2018-02-21T07:25:54.812Z,998.70
2018-02-21T07:26:54.793Z,998.77
2018-02-21T07:27:54.764Z,998.76
2018-02-21T07:28:54.745Z,998.81
2018-02-21T07:29:54.767Z,998.80
2018-02-21T07:30:54.717Z,998.80
2018-02-21T07:31:54.674Z,998.80
2018-02-21T07:32:54.668Z,998.82
2018-02-21T07:33:54.642Z,998.82
2018-02-21T07:34:54.606Z,998.84
2018-02-21T07:35:54.583Z,998.83
2018-02-21T07:36:54.564Z,998.85
2018-02-21T07:37:54.546Z,998.89
2018-02-21T07:38:54.522Z,998.90
2018-02-21T07:39:54.494Z,998.92
2018-02-21T07:40:54.479Z,998.98
2018-02-21T07:41:54.456Z,999.02
2018-02-21T07:42:54.434Z,999.06
2018-02-21T07:43:54.414Z,999.08
2018-02-21T07:44:54.387Z,999.11
2018-02-21T07:45:54.367Z,999.17
2018-02-21T07:46:54.341Z,999.20
2018-02-21T07:47:54.323Z,999.24
2018-02-21T07:48:54.300Z,999.22
2018-02-21T07:49:54.271Z,999.24
2018-02-21T07:50:54.255Z,999.26
2018-02-21T07:51:54.227Z,999.29
2018-02-21T07:52:54.210Z,999.26
2018-02-21T07:53:54.180Z,999.28
2018-02-21T07:54:54.168Z,999.32
2018-02-21T07:55:54.145Z,999.27
2018-02-21T07:56:54.114Z,999.24
2018-02-21T07:57:54.101Z,999.27
2018-02-21T07:58:54.077Z,999.26
2018-02-21T07:59:54.043Z,999.27
2018-02-21T08:00:54.071Z,999.30
2018-02-21T08:01:54.010Z,999.30
2018-02-21T08:02:53.987Z,999.29
2018-02-21T08:03:53.961Z,999.30
2018-02-21T08:04:53.936Z,999.24
2018-02-21T08:05:53.920Z,999.23
2018-02-21T08:06:53.904Z,999.28
2018-02-21T08:07:53.868Z,999.26
2018-02-21T08:08:53.846Z,999.25
2018-02-21T08:09:53.827Z,999.29
2018-02-21T08:10:53.808Z,999.28
2018-02-21T08:11:53.779Z,999.29
2018-02-21T08:12:53.764Z,999.29
2018-02-21T08:13:53.737Z,999.32
2018-02-21T08:14:53.712Z,999.36
2018-02-21T08:15:53.690Z,999.34
2018-02-21T08:16:53.673Z,999.37
2018-02-21T08:17:53.652Z,999.39
2018-02-21T08:18:53.629Z,999.41
2018-02-21T08:19:53.599Z,999.45
2018-02-21T08:20:53.580Z,999.44
2018-02-21T08:21:53.563Z,999.49
2018-02-21T08:22:53.542Z,999.46
2018-02-21T08:23:53.517Z,999.47
2018-02-21T08:24:53.494Z,999.50
2018-02-21T08:25:53.475Z,999.54
2018-02-21T08:26:53.446Z,999.57
2018-02-21T08:27:53.426Z,999.53
2018-02-21T08:28:53.401Z,999.51
2018-02-21T08:29:53.388Z,999.51
2018-02-21T08:30:53.365Z,999.54
2018-02-21T08:31:53.333Z,999.56
2018-02-21T08:32:53.318Z,999.55
2018-02-21T08:33:53.292Z,999.59
2018-02-21T08:34:53.275Z,999.60
2018-02-21T08:35:53.244Z,999.61
2018-02-21T08:36:53.230Z,999.62
2018-02-21T08:37:53.209Z,999.64
2018-02-21T08:38:53.184Z,999.62
2018-02-21T08:39:53.165Z,999.60
2018-02-21T08:40:53.143Z,999.60
2018-02-21T08:41:53.121Z,999.62
2018-02-21T08:42:53.096Z,999.61
2018-02-21T08:43:53.079Z,999.62
2018-02-21T08:44:53.051Z,999.61
2018-02-21T08:45:53.036Z,999.70
2018-02-21T08:46:53.009Z,999.70
2018-02-21T08:47:52.980Z,999.75
2018-02-21T08:48:52.967Z,999.75
2018-02-21T08:49:52.941Z,999.79
2018-02-21T08:50:52.926Z,999.81
2018-02-21T08:51:52.900Z,999.83
2018-02-21T08:52:52.881Z,999.77
2018-02-21T08:53:52.849Z,999.80
2018-02-21T08:54:52.852Z,999.79
2018-02-21T08:55:52.812Z,999.80
2018-02-21T08:56:52.795Z,999.79
2018-02-21T08:57:52.768Z,999.80
2018-02-21T08:58:52.747Z,999.83
2018-02-21T08:59:52.724Z,999.82
2018-02-21T09:00:52.702Z,999.84
2018-02-21T09:01:52.686Z,999.84
2018-02-21T09:02:52.654Z,999.87
2018-02-21T09:03:52.639Z,999.88
2018-02-21T09:04:52.623Z,999.90
2018-02-21T09:05:52.597Z,999.87
2018-02-21T09:06:52.575Z,999.90
2018-02-21T09:07:52.567Z,999.90
2018-02-21T09:08:52.527Z,999.93
2018-02-21T09:09:52.501Z,999.89
2018-02-21T09:10:52.487Z,999.85
2018-02-21T09:11:52.463Z,999.89
2018-02-21T09:12:52.450Z,999.89
2018-02-21T09:13:52.419Z,999.91
2018-02-21T09:14:52.394Z,999.93
2018-02-21T09:15:52.377Z,999.91
2018-02-21T09:16:52.348Z,999.98
2018-02-21T09:17:52.332Z,1000.01
2018-02-21T09:18:52.317Z,1000.04
2018-02-21T09:19:52.285Z,1000.05
2018-02-21T09:20:52.268Z,1000.01
2018-02-21T09:21:52.262Z,1000.00
2018-02-21T09:22:52.219Z,999.96
2018-02-21T09:23:52.197Z,999.91
2018-02-21T09:24:52.181Z,999.89
2018-02-21T09:25:52.155Z,999.95
2018-02-21T09:26:52.139Z,999.94
2018-02-21T09:27:52.119Z,999.93
2018-02-21T09:28:52.095Z,999.94
2018-02-21T09:29:52.072Z,999.94
2018-02-21T09:30:52.050Z,999.93
2018-02-21T09:31:52.025Z,999.96
2018-02-21T09:32:52.022Z,999.98
2018-02-21T09:33:51.989Z,999.98
2018-02-21T09:34:51.961Z,999.98
2018-02-21T09:35:51.945Z,999.96
2018-02-21T09:36:51.921Z,999.96
2018-02-21T09:37:51.907Z,999.99
2018-02-21T09:38:51.886Z,999.96
2018-02-21T09:39:51.862Z,999.99
2018-02-21T09:40:51.839Z,1000.01
2018-02-21T09:41:51.819Z,1000.03
2018-02-21T09:42:51.797Z,1000.06
2018-02-21T09:43:51.778Z,1000.00
2018-02-21T09:44:51.759Z,1000.01
2018-02-21T09:45:51.739Z,1000.02
2018-02-21T09:46:51.717Z,999.99
2018-02-21T09:47:51.688Z,999.94
2018-02-21T09:48:51.673Z,999.95
2018-02-21T09:49:51.640Z,999.92
2018-02-21T09:50:51.634Z,999.92
2018-02-21T09:51:51.610Z,999.89
2018-02-21T09:52:51.588Z,999.95
2018-02-21T09:53:51.562Z,999.95
2018-02-21T09:54:51.552Z,999.92
2018-02-21T09:55:51.514Z,999.98
2018-02-21T09:56:51.550Z,999.96
2018-02-21T09:57:51.476Z,999.95
2018-02-21T09:58:51.450Z,999.90
2018-02-21T09:59:51.434Z,999.87
2018-02-21T10:00:51.414Z,999.85
2018-02-21T10:01:51.386Z,999.90
2018-02-21T10:02:51.366Z,999.87
2018-02-21T10:03:51.357Z,999.85
2018-02-21T10:04:51.325Z,999.89
2018-02-21T10:05:51.303Z,999.81
2018-02-21T10:06:51.304Z,999.85
2018-02-21T10:07:51.261Z,999.84
2018-02-21T10:08:51.235Z,999.84
2018-02-21T10:09:51.223Z,999.84
2018-02-21T10:10:51.207Z,999.84
2018-02-21T10:11:51.178Z,999.85
2018-02-21T10:12:51.155Z,999.83
2018-02-21T10:13:51.146Z,999.81
2018-02-21T10:14:51.114Z,999.79
2018-02-21T10:15:51.098Z,999.74
2018-02-21T10:16:51.085Z,999.76
2018-02-21T10:17:51.056Z,999.86
2018-02-21T10:18:51.031Z,999.81
2018-02-21T10:19:51.020Z,999.83
2018-02-21T10:20:50.994Z,999.81
2018-02-21T10:21:50.975Z,999.80
2018-02-21T10:22:50.963Z,999.84
2018-02-21T10:23:50.947Z,999.80
2018-02-21T10:24:50.921Z,999.80
2018-02-21T10:25:50.908Z,999.78
2018-02-21T10:26:50.886Z,999.79
2018-02-21T10:27:50.873Z,999.76
2018-02-21T10:28:50.848Z,999.77
2018-02-21T10:29:50.826Z,999.77
2018-02-21T10:30:50.811Z,999.75
2018-02-21T10:31:50.801Z,999.76
2018-02-21T10:32:50.789Z,999.74
2018-02-21T10:33:50.760Z,999.71
2018-02-21T10:34:50.750Z,999.73
2018-02-21T10:35:50.727Z,999.77
2018-02-21T10:36:50.712Z,999.75
2018-02-21T10:37:50.699Z,999.73
2018-02-21T10:38:50.687Z,999.70
2018-02-21T10:39:50.664Z,999.72
2018-02-21T10:40:50.650Z,999.70
2018-02-21T10:41:50.638Z,999.73
2018-02-21T10:42:50.619Z,999.76
2018-02-21T10:43:50.609Z,999.81
2018-02-21T10:44:50.591Z,999.79
2018-02-21T10:45:50.574Z,999.86
2018-02-21T10:46:50.568Z,999.84
2018-02-21T10:47:50.546Z,999.85
2018-02-21T10:48:50.530Z,999.87
2018-02-21T10:49:50.520Z,999.83
2018-02-21T10:50:50.504Z,999.84
2018-02-21T10:51:50.488Z,999.82
2018-02-21T10:52:50.469Z,999.79
2018-02-21T10:53:50.453Z,999.74
2018-02-21T10:54:50.446Z,999.73
2018-02-21T10:55:50.424Z,999.75
2018-02-21T10:56:50.415Z,999.76
2018-02-21T10:57:50.398Z,999.72
2018-02-21T10:58:50.380Z,999.69
2018-02-21T10:59:50.370Z,999.71
2018-02-21T11:00:50.352Z,999.76
2018-02-21T11:01:50.338Z,999.72
2018-02-21T11:02:50.331Z,999.71
2018-02-21T11:03:50.309Z,999.75
2018-02-21T11:04:50.308Z,999.72
2018-02-21T11:05:50.285Z,999.69
2018-02-21T11:06:50.270Z,999.69
2018-02-21T11:07:50.252Z,999.63
2018-02-21T11:08:50.291Z,999.64
2018-02-21T11:09:50.230Z,999.63
2018-02-21T11:10:50.211Z,999.62
2018-02-21T11:11:50.205Z,999.63
2018-02-21T11:12:50.185Z,999.62
2018-02-21T11:13:50.172Z,999.63
2018-02-21T11:14:50.162Z,999.63
2018-02-21T11:15:50.143Z,999.67
2018-02-21T11:16:50.130Z,999.64
2018-02-21T11:17:50.121Z,999.68
2018-02-21T11:18:50.101Z,999.63
2018-02-21T11:19:50.096Z,999.65
2018-02-21T11:20:50.089Z,999.58
2018-02-21T11:21:50.071Z,999.61
2018-02-21T11:22:50.057Z,999.60
2018-02-21T11:23:50.036Z,999.59
2018-02-21T11:24:50.029Z,999.59
2018-02-21T11:25:50.010Z,999.62
2018-02-21T11:26:49.997Z,999.63
2018-02-21T11:27:49.985Z,999.67
2018-02-21T11:28:49.987Z,999.71
2018-02-21T11:29:49.956Z,999.70
2018-02-21T11:30:49.952Z,999.69
2018-02-21T11:31:49.943Z,999.69
2018-02-21T11:32:49.930Z,999.65
2018-02-21T11:33:49.913Z,999.66
2018-02-21T11:34:49.902Z,999.70
2018-02-21T11:35:49.888Z,999.66
2018-02-21T11:36:49.883Z,999.64
2018-02-21T11:37:49.869Z,999.61
2018-02-21T11:38:49.856Z,999.63
2018-02-21T11:39:49.847Z,999.63
2018-02-21T11:40:49.832Z,999.65
2018-02-21T11:41:49.823Z,999.59
2018-02-21T11:42:49.813Z,999.62
2018-02-21T11:43:49.801Z,999.60
2018-02-21T11:44:49.791Z,999.59
2018-02-21T11:45:49.778Z,999.56
2018-02-21T11:46:49.771Z,999.54
2018-02-21T11:47:49.756Z,999.59
2018-02-21T11:48:49.753Z,999.55
2018-02-21T11:49:49.743Z,999.53
2018-02-21T11:50:49.734Z,999.55
2018-02-21T11:51:49.725Z,999.59
2018-02-21T11:52:49.711Z,999.54
2018-02-21T11:53:49.705Z,999.55
2018-02-21T11:54:49.695Z,999.57
2018-02-21T11:55:49.686Z,999.57
2018-02-21T11:56:49.673Z,999.54
2018-02-21T11:57:49.658Z,999.53
2018-02-21T11:58:49.653Z,999.53
2018-02-21T11:59:49.643Z,999.50
2018-02-21T12:00:49.638Z,999.55
2018-02-21T12:01:49.622Z,999.49
2018-02-21T12:02:49.616Z,999.51
2018-02-21T12:03:49.603Z,999.50
2018-02-21T12:04:49.658Z,999.51
2018-02-21T12:05:49.585Z,999.46
2018-02-21T12:06:49.593Z,999.47
2018-02-21T12:07:49.565Z,999.45
2018-02-21T12:08:49.565Z,999.43
2018-02-21T12:09:49.556Z,999.44
2018-02-21T12:10:49.542Z,999.42
2018-02-21T12:11:49.527Z,999.39
2018-02-21T12:12:49.517Z,999.41
2018-02-21T12:13:49.517Z,999.37
2018-02-21T12:14:49.500Z,999.36
2018-02-21T12:15:49.494Z,999.32
2018-02-21T12:16:49.482Z,999.37
2018-02-21T12:17:49.472Z,999.31
2018-02-21T12:18:49.466Z,999.30
2018-02-21T12:19:49.459Z,999.31
2018-02-21T12:20:49.439Z,999.30
2018-02-21T12:21:49.949Z,999.28
2018-02-21T12:22:49.430Z,999.21
2018-02-21T12:23:49.417Z,999.20
2018-02-21T12:24:49.411Z,999.19
2018-02-21T12:25:49.397Z,999.19
2018-02-21T12:26:49.385Z,999.16
2018-02-21T12:27:49.385Z,999.20